createdAt,value
2022-10-29T00:01:11.581Z,5.38
2022-10-29T00:04:33.340Z,5.80
2022-10-29T00:07:54.918Z,5.93
2022-10-29T00:11:22.853Z,5.70
2022-10-29T00:14:44.371Z,5.13
2022-10-29T00:18:05.945Z,5.70
2022-10-29T00:21:27.833Z,5.30
2022-10-29T00:24:49.317Z,5.57
2022-10-29T00:28:12.435Z,5.15
2022-10-29T00:31:33.906Z,5.07
2022-10-29T00:34:55.480Z,5.65
2022-10-29T00:38:16.571Z,5.00
2022-10-29T00:41:37.770Z,5.28
2022-10-29T00:45:00.676Z,5.15
2022-10-29T00:48:24.570Z,5.50
2022-10-29T00:51:47.586Z,5.22
2022-10-29T00:55:15.394Z,6.70
2022-10-29T00:58:36.973Z,5.53
2022-10-29T01:02:00.030Z,5.40
2022-10-29T01:05:25.012Z,5.68
2022-10-29T01:08:48.800Z,5.20
2022-10-29T01:12:29.991Z,5.47
2022-10-29T01:16:01.642Z,4.68
2022-10-29T01:19:42.068Z,6.07
2022-10-29T01:23:20.101Z,5.50
2022-10-29T01:27:20.291Z,5.72
2022-10-29T01:31:04.777Z,5.32
2022-10-29T01:34:33.457Z,5.63
2022-10-29T01:38:06.460Z,5.93
2022-10-29T01:41:34.067Z,6.60
2022-10-29T01:44:59.900Z,5.60
2022-10-29T01:48:32.171Z,5.88
2022-10-29T01:51:57.427Z,6.03
2022-10-29T01:55:21.318Z,6.10
2022-10-29T01:58:48.655Z,6.10
2022-10-29T02:02:16.737Z,5.97
2022-10-29T02:05:47.526Z,6.30
2022-10-29T02:09:16.479Z,5.93
2022-10-29T02:12:46.936Z,5.50
2022-10-29T02:16:10.947Z,5.50
2022-10-29T02:19:33.447Z,6.30
2022-10-29T02:22:56.415Z,6.22
2022-10-29T02:26:17.841Z,5.43
2022-10-29T02:29:39.633Z,6.15
2022-10-29T02:33:01.511Z,6.63
2022-10-29T02:36:23.257Z,6.35
2022-10-29T02:39:45.914Z,6.63
2022-10-29T02:43:07.365Z,6.18
2022-10-29T02:46:30.284Z,6.28
2022-10-29T02:49:54.708Z,6.40
2022-10-29T02:53:15.931Z,5.80
2022-10-29T02:56:38.769Z,6.97
2022-10-29T03:00:00.163Z,6.40
2022-10-29T03:03:21.700Z,6.82
2022-10-29T03:06:42.873Z,6.05
2022-10-29T03:10:04.805Z,6.47
2022-10-29T03:13:27.853Z,6.20
2022-10-29T03:16:49.302Z,6.82
2022-10-29T03:20:11.247Z,6.85
2022-10-29T03:23:32.859Z,6.20
2022-10-29T03:26:54.172Z,6.68
2022-10-29T03:30:18.438Z,7.32
2022-10-29T03:33:39.902Z,6.18
2022-10-29T03:37:01.658Z,6.75
2022-10-29T03:40:23.472Z,6.82
2022-10-29T03:43:44.956Z,6.25
2022-10-29T03:47:08.754Z,6.60
2022-10-29T03:50:30.011Z,6.70
2022-10-29T03:53:51.175Z,6.50
2022-10-29T03:57:12.395Z,7.22
2022-10-29T04:00:33.866Z,7.35
2022-10-29T04:03:56.564Z,6.43
2022-10-29T04:07:18.254Z,6.65
2022-10-29T04:10:45.249Z,6.90
2022-10-29T04:14:09.832Z,6.70
2022-10-29T04:17:31.045Z,7.30
2022-10-29T04:28:42.447Z,6.75
2022-10-29T04:31:59.029Z,6.95
2022-10-29T04:35:22.592Z,6.78
2022-10-29T04:38:45.804Z,7.22
2022-10-29T04:42:07.697Z,6.97
2022-10-29T04:45:29.621Z,6.53
2022-10-29T04:48:51.597Z,7.93
2022-10-29T04:52:13.287Z,7.38
2022-10-29T04:55:37.416Z,7.13
2022-10-29T04:58:59.230Z,6.95
2022-10-29T05:02:20.610Z,6.80
2022-10-29T05:05:42.016Z,6.95
2022-10-29T05:09:03.799Z,7.18
2022-10-29T05:12:26.599Z,7.03
2022-10-29T05:15:53.546Z,7.97
2022-10-29T05:19:20.078Z,7.47
2022-10-29T05:22:43.890Z,7.50
2022-10-29T05:26:17.024Z,8.77
2022-10-29T05:30:39.457Z,7.32
2022-10-29T05:34:04.790Z,7.40
2022-10-29T05:37:33.847Z,8.27
2022-10-29T05:40:58.359Z,7.22
2022-10-29T05:44:20.211Z,7.60
2022-10-29T05:47:43.003Z,10.00
2022-10-29T05:51:06.743Z,9.45
2022-10-29T05:54:28.742Z,10.05
2022-10-29T05:57:53.641Z,7.32
2022-10-29T06:01:15.295Z,7.97
2022-10-29T06:04:37.796Z,8.18
2022-10-29T06:08:01.805Z,7.20
2022-10-29T06:11:29.152Z,7.53
2022-10-29T06:14:51.500Z,7.70
2022-10-29T06:18:13.907Z,7.97
2022-10-29T06:21:36.196Z,7.90
2022-10-29T06:25:04.162Z,8.13
2022-10-29T06:28:33.476Z,7.90
2022-10-29T06:31:56.474Z,8.00
2022-10-29T06:35:21.208Z,7.90
2022-10-29T06:38:44.078Z,7.93
2022-10-29T06:42:09.232Z,8.35
2022-10-29T06:46:11.429Z,7.50
2022-10-29T06:49:35.805Z,7.20
2022-10-29T06:53:00.720Z,8.50
2022-10-29T06:56:22.667Z,8.35
2022-10-29T06:59:45.390Z,8.65
2022-10-29T07:03:07.741Z,8.10
2022-10-29T07:06:33.605Z,8.32
2022-10-29T07:09:56.365Z,8.05
2022-10-29T07:13:19.869Z,7.55
2022-10-29T07:16:46.287Z,8.30
2022-10-29T07:20:11.761Z,8.75
2022-10-29T07:23:56.567Z,8.55
2022-10-29T07:27:42.129Z,7.60
2022-10-29T07:31:04.532Z,8.80
2022-10-29T07:34:28.779Z,9.02
2022-10-29T07:37:53.274Z,8.35
2022-10-29T07:41:18.367Z,8.57
2022-10-29T07:44:43.128Z,8.90
2022-10-29T07:48:08.870Z,9.57
2022-10-29T07:51:31.959Z,9.25
2022-10-29T07:54:53.416Z,9.30
2022-10-29T07:58:15.307Z,8.30
2022-10-29T08:01:45.897Z,9.40
2022-10-29T08:05:10.645Z,9.25
2022-10-29T08:08:35.165Z,8.77
2022-10-29T08:12:01.318Z,9.90
2022-10-29T08:15:29.852Z,9.88
2022-10-29T08:18:52.344Z,9.45
2022-10-29T08:22:16.959Z,9.93
2022-10-29T08:25:42.890Z,10.18
2022-10-29T08:29:04.600Z,9.65
2022-10-29T08:32:29.815Z,10.10
2022-10-29T08:35:52.749Z,11.88
2022-10-29T08:39:35.844Z,11.63
2022-10-29T08:43:36.701Z,11.05
2022-10-29T08:47:11.627Z,11.90
2022-10-29T08:50:42.045Z,10.88
2022-10-29T08:54:25.510Z,11.30
2022-10-29T08:57:52.258Z,10.93
2022-10-29T09:01:31.852Z,10.85
2022-10-29T09:05:04.445Z,10.27
2022-10-29T09:08:38.932Z,10.55
2022-10-29T09:12:17.221Z,10.05
2022-10-29T09:15:57.633Z,10.15
2022-10-29T09:19:51.655Z,10.02
2022-10-29T09:23:27.125Z,9.35
2022-10-29T09:26:58.479Z,9.23
2022-10-29T09:30:21.850Z,8.55
2022-10-29T09:33:50.848Z,8.00
2022-10-29T09:37:21.836Z,8.65
2022-10-29T09:40:45.314Z,8.82
2022-10-29T09:44:22.343Z,7.45
2022-10-29T09:47:53.454Z,7.88
2022-10-29T09:51:27.205Z,7.40
2022-10-29T09:55:04.503Z,7.45
2022-10-29T09:58:29.616Z,7.70
2022-10-29T10:01:51.073Z,7.32
2022-10-29T10:05:18.850Z,6.93
2022-10-29T10:09:01.703Z,7.28
2022-10-29T10:12:26.875Z,7.82
2022-10-29T10:16:00.425Z,7.28
2022-10-29T10:19:26.926Z,6.60
2022-10-29T10:22:48.419Z,6.82
2022-10-29T10:26:29.381Z,7.25
2022-10-29T10:30:13.241Z,7.78
2022-10-29T10:33:38.086Z,7.80
2022-10-29T10:37:09.561Z,8.45
2022-10-29T10:40:38.039Z,7.80
2022-10-29T10:44:08.573Z,8.70
2022-10-29T10:47:36.501Z,8.13
2022-10-29T10:51:21.560Z,9.07
2022-10-29T10:54:47.549Z,7.20
2022-10-29T10:58:16.498Z,8.05
2022-10-29T11:02:04.596Z,10.68
2022-10-29T11:05:56.452Z,9.20
2022-10-29T11:09:52.594Z,8.70
2022-10-29T11:13:20.604Z,8.32
2022-10-29T11:16:50.779Z,9.05
2022-10-29T11:20:25.574Z,8.10
2022-10-29T11:24:16.283Z,8.30
2022-10-29T11:27:58.342Z,8.25
2022-10-29T11:31:34.260Z,8.00
2022-10-29T11:39:11.848Z,8.55
2022-10-29T11:42:39.338Z,8.57
2022-10-29T11:46:11.094Z,9.02
2022-10-29T11:49:54.808Z,9.27
2022-10-29T11:53:43.323Z,9.40
2022-10-29T11:57:10.308Z,9.35
2022-10-29T12:00:45.954Z,9.73
2022-10-29T12:04:28.286Z,9.77
2022-10-29T12:08:06.757Z,9.43
2022-10-29T12:11:42.067Z,9.45
2022-10-29T12:15:18.478Z,10.43
2022-10-29T12:18:48.456Z,9.38
2022-10-29T12:22:25.978Z,9.43
2022-10-29T12:26:04.541Z,9.93
2022-10-29T12:29:35.054Z,9.68
2022-10-29T12:33:08.376Z,9.32
2022-10-29T12:36:42.785Z,9.80
2022-10-29T12:40:16.131Z,9.10
2022-10-29T12:43:42.916Z,11.07
2022-10-29T12:47:15.524Z,10.32
2022-10-29T12:50:55.995Z,9.98
2022-10-29T12:54:26.831Z,10.25
2022-10-29T12:57:57.876Z,9.13
2022-10-29T13:02:10.549Z,10.18
2022-10-29T13:05:41.316Z,8.80
2022-10-29T13:09:17.292Z,9.70
2022-10-29T13:13:01.955Z,9.35
2022-10-29T13:16:29.329Z,9.10
2022-10-29T13:19:53.677Z,8.85
2022-10-29T13:23:45.213Z,8.23
2022-10-29T13:27:37.133Z,8.00
2022-10-29T13:31:32.920Z,7.88
2022-10-29T13:34:57.908Z,8.45
2022-10-29T13:38:58.159Z,9.02
2022-10-29T13:42:29.236Z,8.18
2022-10-29T13:46:03.706Z,8.32
2022-10-29T13:49:31.215Z,7.70
2022-10-29T13:52:59.442Z,8.77
2022-10-29T13:56:29.874Z,8.20
2022-10-29T13:59:57.312Z,8.63
2022-10-29T14:03:27.242Z,7.45
2022-10-29T14:06:51.652Z,7.47
2022-10-29T14:10:22.886Z,7.38
2022-10-29T14:13:48.985Z,7.60
2022-10-29T14:17:12.554Z,8.38
2022-10-29T14:20:33.946Z,7.82
2022-10-29T14:23:57.059Z,7.78
2022-10-29T14:27:20.630Z,8.63
2022-10-29T14:30:42.280Z,8.20
2022-10-29T14:34:03.729Z,8.40
2022-10-29T14:37:33.421Z,7.95
2022-10-29T14:40:57.220Z,8.63
2022-10-29T14:44:33.773Z,7.93
2022-10-29T14:47:58.387Z,8.80
2022-10-29T14:51:21.925Z,8.68
2022-10-29T14:54:50.304Z,7.90
2022-10-29T14:58:20.242Z,8.52
2022-10-29T15:02:01.183Z,8.50
2022-10-29T15:05:36.034Z,7.88
2022-10-29T15:09:03.573Z,8.13
2022-10-29T15:12:36.811Z,8.60
2022-10-29T15:16:04.307Z,8.32
2022-10-29T15:19:30.911Z,9.18
2022-10-29T15:22:59.040Z,13.20
2022-10-29T15:26:22.394Z,15.00
2022-10-29T15:29:47.907Z,17.58
2022-10-29T15:33:18.127Z,14.00
2022-10-29T15:36:49.201Z,9.25
2022-10-29T15:40:17.770Z,10.65
2022-10-29T15:43:51.748Z,9.80
2022-10-29T15:47:30.198Z,10.50
2022-10-29T15:50:52.436Z,10.63
2022-10-29T15:54:15.667Z,10.35
2022-10-29T15:57:37.660Z,10.63
2022-10-29T16:00:59.332Z,14.70
2022-10-29T16:04:20.738Z,15.50
2022-10-29T16:07:44.014Z,20.05
2022-10-29T16:11:11.863Z,22.92
2022-10-29T16:14:34.007Z,25.40
2022-10-29T16:17:55.945Z,26.73
2022-10-29T16:21:20.954Z,30.95
2022-10-29T16:24:43.193Z,28.13
2022-10-29T16:28:09.613Z,28.50
2022-10-29T16:31:32.335Z,29.20
2022-10-29T16:34:54.727Z,26.75
2022-10-29T16:38:21.584Z,32.83
2022-10-29T16:41:44.535Z,31.40
2022-10-29T16:45:15.161Z,31.75
2022-10-29T16:48:37.305Z,29.25
2022-10-29T16:51:59.042Z,27.38
2022-10-29T16:55:20.288Z,28.98
2022-10-29T16:58:41.578Z,29.80
2022-10-29T17:02:04.651Z,29.33
2022-10-29T17:05:26.132Z,31.27
2022-10-29T17:09:06.650Z,32.35
2022-10-29T17:12:28.776Z,32.97
2022-10-29T17:15:50.460Z,31.63
2022-10-29T17:19:13.253Z,30.80
2022-10-29T17:22:35.037Z,30.27
2022-10-29T17:25:58.518Z,31.00
2022-10-29T17:29:20.484Z,30.73
2022-10-29T17:32:56.292Z,30.98
2022-10-29T17:36:21.099Z,31.85
2022-10-29T17:39:42.809Z,31.42
2022-10-29T17:43:04.457Z,30.40
2022-10-29T17:46:26.387Z,30.10
2022-10-29T17:49:47.987Z,31.10
2022-10-29T17:53:11.225Z,30.55
2022-10-29T17:56:35.847Z,30.80
2022-10-29T17:59:57.508Z,28.60
2022-10-29T18:03:20.060Z,30.70
2022-10-29T18:06:41.357Z,30.90
2022-10-29T18:10:05.104Z,30.90
2022-10-29T18:13:26.642Z,30.58
2022-10-29T18:16:48.441Z,31.30
2022-10-29T18:20:12.156Z,30.15
2022-10-29T18:23:34.358Z,30.55
2022-10-29T18:26:57.391Z,30.10
2022-10-29T18:30:22.748Z,29.27
2022-10-29T18:33:44.656Z,25.67
2022-10-29T18:37:06.808Z,25.15
2022-10-29T18:40:29.142Z,28.58
2022-10-29T18:43:54.103Z,30.15
2022-10-29T18:47:15.773Z,29.83
2022-10-29T18:50:43.858Z,29.58
2022-10-29T18:54:07.979Z,29.63
2022-10-29T18:57:29.668Z,26.90
2022-10-29T19:00:52.329Z,28.48
2022-10-29T19:04:16.381Z,27.75
2022-10-29T19:07:42.633Z,27.38
2022-10-29T19:11:05.826Z,29.08
2022-10-29T19:14:27.555Z,30.65
2022-10-29T19:17:51.186Z,31.98
2022-10-29T19:21:14.763Z,33.42
2022-10-29T19:24:37.083Z,29.83
2022-10-29T19:27:59.303Z,32.17
2022-10-29T19:31:23.674Z,29.48
2022-10-29T19:34:47.078Z,28.92
2022-10-29T19:38:08.740Z,30.50
2022-10-29T19:41:30.559Z,31.73
2022-10-29T19:44:55.470Z,29.85
2022-10-29T19:48:29.966Z,31.55
2022-10-29T19:51:56.439Z,31.58
2022-10-29T19:55:20.230Z,30.42
2022-10-29T19:58:42.519Z,30.20
2022-10-29T20:02:04.612Z,30.70
2022-10-29T20:05:26.247Z,32.65
2022-10-29T20:08:49.285Z,34.55
2022-10-29T20:12:17.509Z,34.63
2022-10-29T20:15:42.765Z,34.30
2022-10-29T20:19:05.002Z,33.33
2022-10-29T20:22:26.760Z,31.67
2022-10-29T20:25:49.502Z,32.78
2022-10-29T20:29:12.732Z,34.72
2022-10-29T20:32:34.221Z,35.22
2022-10-29T20:35:56.377Z,36.03
2022-10-29T20:39:22.741Z,32.13
2022-10-29T20:42:50.429Z,33.63
2022-10-29T20:46:12.597Z,32.78
2022-10-29T20:49:37.144Z,32.42
2022-10-29T20:52:58.685Z,31.17
2022-10-29T20:56:20.944Z,31.00
2022-10-29T20:59:43.773Z,31.83
2022-10-29T21:03:12.346Z,28.33
2022-10-29T21:06:35.025Z,29.20
2022-10-29T21:10:00.690Z,29.58
2022-10-29T21:13:25.156Z,29.23
2022-10-29T21:16:48.033Z,28.58
2022-10-29T21:20:10.030Z,28.80
2022-10-29T21:23:32.315Z,29.80
2022-10-29T21:26:53.761Z,28.10
2022-10-29T21:30:15.171Z,27.67
2022-10-29T21:33:38.383Z,26.95
2022-10-29T21:36:59.675Z,27.08
2022-10-29T21:40:21.050Z,25.35
2022-10-29T21:43:42.418Z,25.50
2022-10-29T21:47:03.694Z,24.58
2022-10-29T21:50:26.533Z,26.27
2022-10-29T21:53:48.209Z,24.70
2022-10-29T21:57:10.030Z,21.73
2022-10-29T22:00:32.295Z,21.95
2022-10-29T22:03:53.900Z,22.10
2022-10-29T22:07:16.553Z,22.50
2022-10-29T22:10:41.226Z,23.10
2022-10-29T22:14:02.670Z,22.55
2022-10-29T22:17:24.313Z,23.60
2022-10-29T22:20:45.568Z,23.10
2022-10-29T22:24:10.270Z,23.08
2022-10-29T22:27:31.669Z,22.25
2022-10-29T22:30:58.674Z,21.75
2022-10-29T22:34:20.160Z,22.92
2022-10-29T22:37:41.417Z,23.45
2022-10-29T22:41:08.285Z,22.58
2022-10-29T22:44:29.698Z,23.70
2022-10-29T22:47:50.852Z,23.70
2022-10-29T22:51:14.747Z,22.80
2022-10-29T22:54:36.531Z,21.48
2022-10-29T22:57:59.568Z,21.95
2022-10-29T23:01:23.108Z,21.75
2022-10-29T23:04:44.658Z,20.95
2022-10-29T23:08:06.882Z,20.95
2022-10-29T23:11:30.428Z,20.10
2022-10-29T23:14:52.983Z,20.48
2022-10-29T23:18:14.776Z,22.83
2022-10-29T23:21:36.983Z,24.45
2022-10-29T23:24:58.272Z,22.30
2022-10-29T23:28:20.198Z,21.00
2022-10-29T23:31:42.996Z,21.30
2022-10-29T23:35:04.539Z,20.90
2022-10-29T23:38:26.278Z,21.42
2022-10-29T23:41:47.790Z,22.58
2022-10-29T23:45:10.113Z,22.38
2022-10-29T23:48:33.055Z,23.25
2022-10-29T23:51:54.645Z,22.10
2022-10-29T23:55:16.457Z,21.23
2022-10-29T23:58:37.820Z,19.33
